createdAt,value
2023-03-13T00:01:28.068Z,99768.26
2023-03-13T00:03:55.764Z,99762.17
2023-03-13T00:06:35.527Z,99761.48
2023-03-13T00:09:03.257Z,99761.38
2023-03-13T00:11:30.333Z,99758.90
2023-03-13T00:13:59.121Z,99752.48
2023-03-13T00:16:26.356Z,99751.92
2023-03-13T00:18:54.476Z,99750.63
2023-03-13T00:21:23.755Z,99748.05
2023-03-13T00:23:50.646Z,99744.80
2023-03-13T00:26:21.689Z,99748.56
2023-03-13T00:28:51.056Z,99742.64
2023-03-13T00:31:19.760Z,99742.34
2023-03-13T00:33:53.761Z,99739.86
2023-03-13T00:36:26.636Z,99742.49
2023-03-13T00:38:55.292Z,99744.26
2023-03-13T00:41:25.741Z,99741.33
2023-03-13T00:43:53.574Z,99738.24
2023-03-13T00:46:23.229Z,99735.33
2023-03-13T00:48:51.029Z,99738.99
2023-03-13T00:51:19.689Z,99740.91
2023-03-13T00:53:48.947Z,99743.66
2023-03-13T00:56:20.074Z,99746.82
2023-03-13T00:58:48.888Z,99748.90
2023-03-13T01:01:20.678Z,99743.81
2023-03-13T01:03:53.625Z,99743.86
2023-03-13T01:06:24.311Z,99743.30
2023-03-13T01:08:52.974Z,99747.49
2023-03-13T01:11:22.653Z,99745.48
2023-03-13T01:13:50.693Z,99738.88
2023-03-13T01:16:20.797Z,99734.55
2023-03-13T01:18:53.771Z,99728.38
2023-03-13T01:21:21.891Z,99728.10
2023-03-13T01:23:50.394Z,99727.28
2023-03-13T01:26:18.616Z,99721.89
2023-03-13T01:28:45.958Z,99717.31
2023-03-13T01:31:34.821Z,99715.23
2023-03-13T01:34:04.642Z,99714.50
2023-03-13T01:36:32.035Z,99711.36
2023-03-13T01:39:01.095Z,99702.77
2023-03-13T01:41:30.328Z,99702.44
2023-03-13T01:43:58.332Z,99699.31
2023-03-13T01:46:30.776Z,99698.27
2023-03-13T01:49:21.363Z,99700.45
2023-03-13T01:52:22.936Z,99693.70
2023-03-13T01:55:08.648Z,99680.94
2023-03-13T01:57:47.181Z,99676.73
2023-03-13T02:00:22.664Z,99673.01
2023-03-13T02:02:53.685Z,99671.10
2023-03-13T02:05:23.021Z,99669.88
2023-03-13T02:07:57.337Z,99666.20
2023-03-13T02:10:26.925Z,99660.89
2023-03-13T02:12:57.773Z,99655.60
2023-03-13T02:18:07.800Z,99665.17
2023-03-13T02:20:34.883Z,99672.79
2023-03-13T02:23:13.843Z,99670.61
2023-03-13T02:25:48.762Z,99661.85
2023-03-13T02:28:22.036Z,99665.27
2023-03-13T02:30:51.679Z,99664.19
2023-03-13T02:33:21.286Z,99663.03
2023-03-13T02:35:48.693Z,99664.21
2023-03-13T02:38:24.349Z,99662.78
2023-03-13T02:40:54.018Z,99659.15
2023-03-13T02:43:32.639Z,99661.96
2023-03-13T02:46:15.058Z,99659.40
2023-03-13T02:48:47.546Z,99653.98
2023-03-13T02:51:25.121Z,99645.54
2023-03-13T02:53:56.300Z,99648.73
2023-03-13T02:56:25.904Z,99644.16
2023-03-13T02:58:53.340Z,99642.52
2023-03-13T03:01:22.362Z,99644.27
2023-03-13T03:03:49.309Z,99654.99
2023-03-13T03:06:16.302Z,99658.57
2023-03-13T03:08:44.082Z,99652.08
2023-03-13T03:11:12.764Z,99647.38
2023-03-13T03:13:41.410Z,99648.40
2023-03-13T03:16:15.465Z,99648.70
2023-03-13T03:18:42.465Z,99649.93
2023-03-13T03:21:09.363Z,99646.63
2023-03-13T03:23:39.005Z,99640.37
2023-03-13T03:26:07.648Z,99636.97
2023-03-13T03:28:35.053Z,99638.60
2023-03-13T03:31:06.356Z,99634.58
2023-03-13T03:33:34.202Z,99639.63
2023-03-13T03:36:07.479Z,99640.02
2023-03-13T03:38:34.931Z,99637.54
2023-03-13T03:41:02.325Z,99636.05
2023-03-13T03:43:29.798Z,99636.04
2023-03-13T03:45:56.947Z,99638.08
2023-03-13T03:48:24.527Z,99636.89
2023-03-13T03:50:51.774Z,99636.18
2023-03-13T03:53:19.165Z,99633.34
2023-03-13T03:57:08.197Z,99637.48
2023-03-13T03:59:35.570Z,99639.88
2023-03-13T04:02:05.834Z,99639.03
2023-03-13T04:04:33.573Z,99638.79
2023-03-13T04:07:13.169Z,99631.08
2023-03-13T04:09:40.523Z,99627.65
2023-03-13T04:12:09.116Z,99620.71
2023-03-13T04:14:40.754Z,99607.73
2023-03-13T04:17:10.282Z,99596.02
2023-03-13T04:19:37.360Z,99592.67
2023-03-13T04:22:04.278Z,99593.42
2023-03-13T04:24:31.670Z,99597.38
2023-03-13T04:26:59.644Z,99590.36
2023-03-13T04:29:26.907Z,99583.34
2023-03-13T04:32:02.495Z,99583.09
2023-03-13T04:35:00.038Z,99582.41
2023-03-13T04:38:01.341Z,99585.94
2023-03-13T04:41:00.480Z,99586.63
2023-03-13T04:43:44.061Z,99585.95
2023-03-13T04:46:31.203Z,99577.01
2023-03-13T04:49:14.635Z,99570.58
2023-03-13T04:52:08.089Z,99575.42
2023-03-13T04:54:54.196Z,99577.05
2023-03-13T04:57:50.609Z,99571.48
2023-03-13T05:00:41.172Z,99571.41
2023-03-13T05:03:20.944Z,99569.23
2023-03-13T05:06:02.372Z,99567.55
2023-03-13T05:08:49.125Z,99567.20
2023-03-13T05:11:19.229Z,99572.73
2023-03-13T05:14:11.299Z,99573.99
2023-03-13T05:16:59.454Z,99568.73
2023-03-13T05:19:46.902Z,99562.61
2023-03-13T05:22:37.977Z,99566.61
2023-03-13T05:25:18.014Z,99560.04
2023-03-13T05:27:53.560Z,99556.68
2023-03-13T05:30:41.023Z,99555.89
2023-03-13T05:33:14.474Z,99553.69
2023-03-13T05:35:50.358Z,99555.49
2023-03-13T05:38:23.054Z,99553.52
2023-03-13T05:41:10.718Z,99547.71
2023-03-13T05:43:56.449Z,99545.02
2023-03-13T05:46:35.229Z,99547.66
2023-03-13T05:49:16.816Z,99552.69
2023-03-13T05:52:02.146Z,99556.02
2023-03-13T05:54:41.307Z,99555.54
2023-03-13T05:57:27.081Z,99562.48
2023-03-13T06:00:29.556Z,99565.31
2023-03-13T06:03:14.354Z,99565.29
2023-03-13T06:05:44.023Z,99564.60
2023-03-13T06:08:30.880Z,99574.40
2023-03-13T06:11:02.039Z,99568.56
2023-03-13T06:13:29.629Z,99562.68
2023-03-13T06:16:01.287Z,99556.86
2023-03-13T06:18:54.435Z,99549.48
2023-03-13T06:21:21.386Z,99554.08
2023-03-13T06:23:48.345Z,99560.31
2023-03-13T06:26:15.145Z,99554.89
2023-03-13T06:28:42.090Z,99558.43
2023-03-13T06:31:09.269Z,99558.82
2023-03-13T06:33:36.141Z,99554.52
2023-03-13T06:36:04.236Z,99553.42
2023-03-13T06:38:31.378Z,99555.80
2023-03-13T06:40:58.660Z,99552.02
2023-03-13T06:43:25.793Z,99545.61
2023-03-13T06:45:52.871Z,99549.09
2023-03-13T06:48:20.402Z,99546.84
2023-03-13T06:50:47.320Z,99545.89
2023-03-13T06:53:19.506Z,99546.17
2023-03-13T06:55:47.170Z,99540.84
2023-03-13T06:58:25.214Z,99542.45
2023-03-13T07:00:57.978Z,99530.69
2023-03-13T07:03:25.209Z,99534.47
2023-03-13T07:05:59.722Z,99529.15
2023-03-13T07:08:27.793Z,99532.84
2023-03-13T07:10:59.629Z,99533.10
2023-03-13T07:13:27.109Z,99530.02
2023-03-13T07:15:54.584Z,99530.95
2023-03-13T07:18:22.367Z,99527.65
2023-03-13T07:20:54.726Z,99523.80
2023-03-13T07:23:22.639Z,99521.84
2023-03-13T07:25:57.537Z,99526.02
2023-03-13T07:28:26.251Z,99529.55
2023-03-13T07:30:53.949Z,99531.03
2023-03-13T07:33:20.991Z,99528.80
2023-03-13T07:35:50.498Z,99526.47
2023-03-13T07:38:18.163Z,99526.11
2023-03-13T07:40:53.385Z,99523.40
2023-03-13T07:43:20.801Z,99524.41
2023-03-13T07:45:59.723Z,99523.16
2023-03-13T07:48:31.033Z,99523.88
2023-03-13T07:50:58.644Z,99516.58
2023-03-13T07:53:25.518Z,99512.16
2023-03-13T07:56:04.207Z,99508.83
2023-03-13T07:58:34.033Z,99509.23
2023-03-13T08:01:01.289Z,99507.73
2023-03-13T08:03:29.225Z,99507.38
2023-03-13T08:06:20.641Z,99505.23
2023-03-13T08:08:48.087Z,99504.77
2023-03-13T08:11:21.436Z,99494.27
2023-03-13T08:13:50.282Z,99487.16
2023-03-13T08:16:24.404Z,99490.49
2023-03-13T08:18:56.662Z,99492.63
2023-03-13T08:21:29.002Z,99487.20
2023-03-13T08:23:58.190Z,99483.08
2023-03-13T08:26:30.320Z,99483.23
2023-03-13T08:28:59.859Z,99475.86
2023-03-13T08:31:31.917Z,99480.14
2023-03-13T08:33:59.527Z,99477.11
2023-03-13T08:36:29.237Z,99479.34
2023-03-13T08:38:59.551Z,99478.15
2023-03-13T08:41:32.298Z,99479.68
2023-03-13T08:43:59.617Z,99477.29
2023-03-13T08:46:29.248Z,99476.46
2023-03-13T08:48:56.250Z,99480.04
2023-03-13T08:51:25.790Z,99476.69
2023-03-13T08:53:53.748Z,99475.46
2023-03-13T08:56:22.464Z,99475.82
2023-03-13T08:58:58.111Z,99473.80
2023-03-13T09:01:27.966Z,99469.13
2023-03-13T09:03:55.442Z,99461.98
2023-03-13T09:06:22.934Z,99450.83
2023-03-13T09:08:51.148Z,99447.02
2023-03-13T09:11:20.764Z,99440.04
2023-03-13T09:13:50.139Z,99435.67
2023-03-13T09:16:22.872Z,99432.38
2023-03-13T09:18:52.122Z,99423.30
2023-03-13T09:21:31.363Z,99424.30
2023-03-13T09:23:58.828Z,99425.05
2023-03-13T09:26:27.746Z,99417.70
2023-03-13T09:28:55.367Z,99409.34
2023-03-13T09:31:28.073Z,99407.15
2023-03-13T09:33:55.630Z,99393.31
2023-03-13T09:36:24.176Z,99391.41
2023-03-13T09:38:57.234Z,99395.39
2023-03-13T09:41:26.412Z,99388.73
2023-03-13T09:44:05.337Z,99387.08
2023-03-13T09:46:52.559Z,99383.23
2023-03-13T09:49:41.596Z,99377.34
2023-03-13T09:52:22.576Z,99375.38
2023-03-13T09:54:55.146Z,99365.91
2023-03-13T09:57:38.768Z,99366.69
2023-03-13T10:00:13.907Z,99353.02
2023-03-13T10:02:46.825Z,99355.36
2023-03-13T10:05:19.771Z,99351.73
2023-03-13T10:07:47.126Z,99350.77
2023-03-13T10:10:39.271Z,99352.62
2023-03-13T10:13:39.861Z,99346.45
2023-03-13T10:16:27.497Z,99340.23
2023-03-13T10:18:58.345Z,99340.05
2023-03-13T10:21:33.984Z,99336.35
2023-03-13T10:24:33.113Z,99333.56
2023-03-13T10:26:59.935Z,99330.44
2023-03-13T10:29:29.613Z,99326.23
2023-03-13T10:32:08.155Z,99322.95
2023-03-13T10:34:56.727Z,99318.10
2023-03-13T10:37:30.216Z,99313.51
2023-03-13T10:40:24.906Z,99310.09
2023-03-13T10:42:59.831Z,99309.74
2023-03-13T10:45:31.478Z,99307.25
2023-03-13T10:48:03.439Z,99299.71
2023-03-13T10:50:36.990Z,99304.80
2023-03-13T10:53:26.294Z,99300.89
2023-03-13T10:55:55.622Z,99297.61
2023-03-13T10:58:40.559Z,99291.61
2023-03-13T11:01:42.119Z,99292.81
2023-03-13T11:04:32.318Z,99286.30
2023-03-13T11:07:06.021Z,99279.54
2023-03-13T11:09:33.558Z,99275.77
2023-03-13T11:12:33.646Z,99269.16
2023-03-13T11:15:02.329Z,99261.11
2023-03-13T11:17:41.025Z,99256.40
2023-03-13T11:20:12.724Z,99257.25
2023-03-13T11:22:55.642Z,99257.42
2023-03-13T11:25:31.871Z,99243.54
2023-03-13T11:28:04.288Z,99240.09
2023-03-13T11:30:52.715Z,99241.64
2023-03-13T11:33:22.397Z,99230.69
2023-03-13T11:36:03.310Z,99223.52
2023-03-13T11:38:36.692Z,99223.38
2023-03-13T11:41:30.830Z,99220.88
2023-03-13T11:44:13.033Z,99215.95
2023-03-13T11:47:04.911Z,99208.41
2023-03-13T11:50:00.421Z,99211.13
2023-03-13T11:52:47.656Z,99204.10
2023-03-13T11:55:20.426Z,99184.83
2023-03-13T11:57:53.416Z,99190.85
2023-03-13T12:00:36.933Z,99181.70
2023-03-13T12:03:55.103Z,99167.65
2023-03-13T12:06:29.796Z,99158.14
2023-03-13T12:09:06.951Z,99147.92
2023-03-13T12:11:43.935Z,99150.44
2023-03-13T12:14:22.378Z,99150.19
2023-03-13T12:17:01.105Z,99147.65
2023-03-13T12:19:52.205Z,99143.89
2023-03-13T12:22:40.402Z,99145.46
2023-03-13T12:25:21.771Z,99140.52
2023-03-13T12:27:55.281Z,99141.46
2023-03-13T12:30:38.034Z,99138.41
2023-03-13T12:33:30.094Z,99145.14
2023-03-13T12:36:13.762Z,99138.67
2023-03-13T12:39:01.217Z,99139.34
2023-03-13T12:41:35.264Z,99129.84
2023-03-13T12:44:09.038Z,99121.16
2023-03-13T12:46:46.606Z,99116.00
2023-03-13T12:49:30.030Z,99113.98
2023-03-13T12:52:38.719Z,99115.63
2023-03-13T12:55:27.388Z,99107.55
2023-03-13T12:58:22.299Z,99108.92
2023-03-13T13:00:51.776Z,99105.27
2023-03-13T13:03:32.216Z,99099.42
2023-03-13T13:06:11.111Z,99102.44
2023-03-13T13:09:02.848Z,99104.28
2023-03-13T13:11:39.494Z,99096.85
2023-03-13T13:14:12.357Z,99088.44
2023-03-13T13:16:44.259Z,99084.91
2023-03-13T13:19:23.648Z,99084.66
2023-03-13T13:22:28.844Z,99081.89
2023-03-13T13:25:22.669Z,99078.70
2023-03-13T13:27:49.824Z,99079.27
2023-03-13T13:30:19.578Z,99079.16
2023-03-13T13:32:46.588Z,99073.97
2023-03-13T13:35:13.539Z,99069.05
2023-03-13T13:37:41.358Z,99067.08
2023-03-13T13:40:32.264Z,99065.58
2023-03-13T13:43:02.911Z,99068.42
2023-03-13T13:45:40.375Z,99066.13
2023-03-13T13:48:40.097Z,99066.40
2023-03-13T13:51:14.394Z,99063.13
2023-03-13T13:53:53.324Z,99060.76
2023-03-13T13:56:29.838Z,99060.09
2023-03-13T13:59:25.110Z,99052.40
2023-03-13T14:02:32.264Z,99050.50
2023-03-13T14:05:15.201Z,99049.40
2023-03-13T14:07:45.265Z,99048.96
2023-03-13T14:10:29.558Z,99046.07
2023-03-13T14:12:58.708Z,99038.02
2023-03-13T14:15:28.890Z,99038.08
2023-03-13T14:18:13.467Z,99043.70
2023-03-13T14:20:53.158Z,99047.70
2023-03-13T14:23:49.532Z,99047.92
2023-03-13T14:26:19.884Z,99024.44
2023-03-13T14:28:58.785Z,99007.05
2023-03-13T14:31:28.228Z,99000.60
2023-03-13T14:33:57.895Z,98985.47
2023-03-13T14:36:25.718Z,98988.77
2023-03-13T14:39:01.382Z,98988.63
2023-03-13T14:41:45.243Z,98989.02
2023-03-13T14:44:23.621Z,98988.03
2023-03-13T14:46:56.756Z,98984.96
2023-03-13T14:49:26.709Z,98987.36
2023-03-13T14:51:59.256Z,98985.91
2023-03-13T14:54:32.245Z,98983.02
2023-03-13T14:57:09.624Z,98981.77
2023-03-13T14:59:36.947Z,98975.53
2023-03-13T15:02:13.298Z,98970.64
2023-03-13T15:04:49.414Z,98961.52
2023-03-13T15:07:17.286Z,98954.48
2023-03-13T15:09:46.489Z,98949.29
2023-03-13T15:12:16.559Z,98946.64
2023-03-13T15:14:49.145Z,98944.38
2023-03-13T15:17:24.145Z,98935.61
2023-03-13T15:20:00.956Z,98930.52
2023-03-13T15:22:33.494Z,98920.16
2023-03-13T15:25:08.585Z,98916.14
2023-03-13T15:27:39.009Z,98914.36
2023-03-13T15:30:07.289Z,98918.68
2023-03-13T15:32:38.158Z,98912.89
2023-03-13T15:35:28.887Z,98913.47
2023-03-13T15:37:58.078Z,98921.67
2023-03-13T15:40:25.699Z,98915.83
2023-03-13T15:42:53.371Z,98914.11
2023-03-13T15:45:21.315Z,98912.09
2023-03-13T15:47:49.154Z,98911.11
2023-03-13T15:50:22.795Z,98915.77
2023-03-13T15:52:49.709Z,98914.77
2023-03-13T15:55:16.937Z,98912.83
2023-03-13T15:57:49.273Z,98911.48
2023-03-13T16:00:21.267Z,98913.89
2023-03-13T16:02:48.449Z,98917.74
2023-03-13T16:05:16.167Z,98913.45
2023-03-13T16:07:43.373Z,98921.42
2023-03-13T16:10:23.855Z,98915.87
2023-03-13T16:12:52.980Z,98910.00
2023-03-13T16:15:20.309Z,98915.89
2023-03-13T16:17:47.544Z,98912.30
2023-03-13T16:20:18.274Z,98911.91
2023-03-13T16:22:45.669Z,98912.46
2023-03-13T16:25:14.039Z,98911.02
2023-03-13T16:27:42.054Z,98914.85
2023-03-13T16:30:21.740Z,98912.91
2023-03-13T16:32:48.845Z,98911.98
2023-03-13T16:35:15.915Z,98910.14
2023-03-13T16:37:43.079Z,98916.89
2023-03-13T16:40:19.005Z,98916.29
2023-03-13T16:42:45.971Z,98914.19
2023-03-13T16:45:14.921Z,98913.84
2023-03-13T16:47:43.771Z,98918.52
2023-03-13T16:50:23.649Z,98922.77
2023-03-13T16:52:51.774Z,98921.07
2023-03-13T16:55:20.014Z,98914.12
2023-03-13T16:57:47.081Z,98917.57
2023-03-13T17:00:22.367Z,98917.69
2023-03-13T17:02:49.806Z,98915.52
2023-03-13T17:05:17.669Z,98918.92
2023-03-13T17:07:48.054Z,98917.37
2023-03-13T17:10:30.338Z,98915.83
2023-03-13T17:12:58.179Z,98916.52
2023-03-13T17:15:30.190Z,98917.84
2023-03-13T17:17:57.324Z,98917.84
2023-03-13T17:20:30.074Z,98920.20
2023-03-13T17:22:57.675Z,98921.38
2023-03-13T17:25:25.489Z,98922.94
2023-03-13T17:27:53.090Z,98925.52
2023-03-13T17:30:27.778Z,98923.18
2023-03-13T17:32:54.901Z,98926.90
2023-03-13T17:35:22.871Z,98926.92
2023-03-13T17:37:50.297Z,98925.16
2023-03-13T17:40:24.590Z,98923.17
2023-03-13T17:42:51.584Z,98922.44
2023-03-13T17:45:19.346Z,98926.22
2023-03-13T17:47:47.327Z,98929.39
2023-03-13T17:50:17.383Z,98935.89
2023-03-13T17:52:44.598Z,98933.34
2023-03-13T17:55:14.706Z,98930.70
2023-03-13T17:57:42.264Z,98927.90
2023-03-13T18:00:20.450Z,98933.05
2023-03-13T18:02:47.409Z,98927.65
2023-03-13T18:05:14.532Z,98929.52
2023-03-13T18:07:44.451Z,98926.42
2023-03-13T18:10:16.003Z,98922.41
2023-03-13T18:12:42.933Z,98918.98
2023-03-13T18:15:10.374Z,98911.95
2023-03-13T18:17:37.334Z,98908.55
2023-03-13T18:20:05.354Z,98905.66
2023-03-13T18:22:34.705Z,98908.60
2023-03-13T18:25:01.951Z,98911.98
2023-03-13T18:27:29.197Z,98910.09
2023-03-13T18:29:58.899Z,98901.09
2023-03-13T18:32:25.796Z,98897.77
2023-03-13T18:34:52.643Z,98893.41
2023-03-13T18:37:19.483Z,98891.42
2023-03-13T18:39:46.347Z,98891.92
2023-03-13T18:42:13.148Z,98895.45
2023-03-13T18:44:40.191Z,98896.36
2023-03-13T18:47:15.525Z,98896.70
2023-03-13T18:49:42.746Z,98900.42
2023-03-13T18:52:11.678Z,98899.29
2023-03-13T18:54:39.026Z,98895.17
2023-03-13T18:57:32.009Z,98896.43
2023-03-13T18:59:58.886Z,98896.98
2023-03-13T19:02:25.796Z,98898.50
2023-03-13T19:04:52.761Z,98890.85
2023-03-13T19:07:26.471Z,98891.40
2023-03-13T19:09:56.535Z,98889.38
2023-03-13T19:12:23.554Z,98881.76
2023-03-13T19:14:50.506Z,98882.09
2023-03-13T19:17:29.639Z,98879.23
2023-03-13T19:19:59.698Z,98865.29
2023-03-13T19:22:27.103Z,98866.88
2023-03-13T19:24:54.082Z,98866.95
2023-03-13T19:27:20.992Z,98867.77
2023-03-13T19:29:48.121Z,98863.29
2023-03-13T19:32:17.756Z,98862.64
2023-03-13T19:34:44.898Z,98858.02
2023-03-13T19:37:14.351Z,98864.54
2023-03-13T19:39:42.561Z,98859.45
2023-03-13T19:42:09.659Z,98860.22
2023-03-13T19:44:37.795Z,98860.50
2023-03-13T19:47:05.548Z,98864.39
2023-03-13T19:49:33.785Z,98867.09
2023-03-13T19:52:00.756Z,98875.20
2023-03-13T19:54:27.660Z,98879.91
2023-03-13T19:56:54.828Z,98880.32
2023-03-13T19:59:24.498Z,98885.40
2023-03-13T20:01:51.495Z,98884.70
2023-03-13T20:04:18.417Z,98876.67
2023-03-13T20:06:45.882Z,98883.09
2023-03-13T20:09:15.383Z,98880.44
2023-03-13T20:11:43.716Z,98884.66
2023-03-13T20:14:11.050Z,98887.48
2023-03-13T20:16:38.533Z,98893.54
2023-03-13T20:19:05.521Z,98895.75
2023-03-13T20:21:37.585Z,98884.21
2023-03-13T20:24:05.097Z,98884.15
2023-03-13T20:26:32.031Z,98879.35
2023-03-13T20:28:59.152Z,98882.40
2023-03-13T20:31:29.845Z,98880.45
2023-03-13T20:33:58.262Z,98881.16
2023-03-13T20:36:25.915Z,98878.82
2023-03-13T20:38:52.990Z,98875.09
2023-03-13T20:41:25.050Z,98871.90
2023-03-13T20:43:54.004Z,98873.39
2023-03-13T20:46:21.521Z,98867.61
2023-03-13T20:48:49.114Z,98866.71
2023-03-13T20:51:17.129Z,98864.17
2023-03-13T20:53:44.661Z,98859.80
2023-03-13T20:56:12.466Z,98860.67
2023-03-13T20:58:40.287Z,98860.92
2023-03-13T21:01:08.575Z,98854.01
2023-03-13T21:03:36.488Z,98846.39
2023-03-13T21:06:11.818Z,98841.49
2023-03-13T21:08:39.283Z,98837.70
2023-03-13T21:11:14.177Z,98837.27
2023-03-13T21:13:41.165Z,98836.88
2023-03-13T21:16:08.932Z,98833.86
2023-03-13T21:18:36.460Z,98838.87
2023-03-13T21:21:09.259Z,98835.06
2023-03-13T21:23:37.851Z,98828.30
2023-03-13T21:26:05.857Z,98826.98
2023-03-13T21:28:32.980Z,98825.88
2023-03-13T21:31:12.221Z,98825.06
2023-03-13T21:33:41.391Z,98821.03
2023-03-13T21:36:10.138Z,98816.20
2023-03-13T21:38:37.124Z,98822.04
2023-03-13T21:41:09.262Z,98820.09
2023-03-13T21:43:37.618Z,98816.36
2023-03-13T21:46:04.774Z,98814.80
2023-03-13T21:48:31.806Z,98817.30
2023-03-13T21:50:59.310Z,98818.63
2023-03-13T21:53:27.068Z,98821.65
2023-03-13T21:55:54.200Z,98830.77
2023-03-13T21:58:21.140Z,98821.16
2023-03-13T22:00:48.244Z,98812.14
2023-03-13T22:03:15.428Z,98809.73
2023-03-13T22:05:44.037Z,98800.61
2023-03-13T22:08:11.602Z,98796.14
2023-03-13T22:10:39.299Z,98790.43
2023-03-13T22:13:10.433Z,98792.07
2023-03-13T22:15:37.375Z,98781.76
2023-03-13T22:18:04.482Z,98780.87
2023-03-13T22:20:31.440Z,98776.37
2023-03-13T22:22:58.391Z,98781.90
2023-03-13T22:25:25.451Z,98779.89
2023-03-13T22:27:52.508Z,98765.52
2023-03-13T22:30:19.529Z,98779.98
2023-03-13T22:32:46.424Z,98770.05
2023-03-13T22:35:13.514Z,98756.00
2023-03-13T22:37:40.545Z,98772.79
2023-03-13T22:40:07.983Z,98773.27
2023-03-13T22:42:35.355Z,98769.70
2023-03-13T22:45:02.375Z,98770.30
2023-03-13T22:47:32.706Z,98777.06
2023-03-13T22:49:59.786Z,98780.45
2023-03-13T22:52:31.105Z,98758.85
2023-03-13T22:54:58.822Z,98759.89
2023-03-13T22:57:26.044Z,98765.52
2023-03-13T22:59:54.074Z,98748.55
2023-03-13T23:02:21.714Z,98754.34
2023-03-13T23:04:48.516Z,98755.42
2023-03-13T23:07:15.420Z,98743.93
2023-03-13T23:09:42.393Z,98739.23
2023-03-13T23:12:09.347Z,98746.30
2023-03-13T23:14:36.560Z,98747.59
2023-03-13T23:17:03.887Z,98730.73
2023-03-13T23:19:34.658Z,98733.23
2023-03-13T23:22:01.818Z,98740.65
2023-03-13T23:24:29.079Z,98730.84
2023-03-13T23:26:56.146Z,98740.44
2023-03-13T23:29:23.198Z,98742.92
2023-03-13T23:31:50.236Z,98739.77
2023-03-13T23:34:22.019Z,98737.65
2023-03-13T23:36:50.126Z,98743.50
2023-03-13T23:39:17.131Z,98748.16
2023-03-13T23:41:44.086Z,98736.25
2023-03-13T23:44:11.133Z,98743.42
2023-03-13T23:46:37.960Z,98740.36
2023-03-13T23:49:05.235Z,98724.79
2023-03-13T23:51:33.300Z,98738.49
2023-03-13T23:54:00.798Z,98734.41
2023-03-13T23:56:29.733Z,98725.92
2023-03-13T23:58:56.524Z,98715.71
